sensor_id;sensor_type;location;lat;lon;timestamp;P1;durP1;ratioP1;P2;durP2;ratioP2
51618;SDS011;38518;53.164;5.430;2024-02-26T00:01:39;11.80;;;9.25;;
51618;SDS011;38518;53.164;5.430;2024-02-26T00:04:05;12.75;;;9.40;;
51618;SDS011;38518;53.164;5.430;2024-02-26T00:06:31;13.48;;;12.18;;
51618;SDS011;38518;53.164;5.430;2024-02-26T00:08:57;12.90;;;10.65;;
51618;SDS011;38518;53.164;5.430;2024-02-26T00:11:23;10.65;;;7.00;;
51618;SDS011;38518;53.164;5.430;2024-02-26T00:13:49;12.98;;;10.65;;
51618;SDS011;38518;53.164;5.430;2024-02-26T00:16:15;11.45;;;8.35;;
51618;SDS011;38518;53.164;5.430;2024-02-26T00:18:40;10.18;;;7.70;;
51618;SDS011;38518;53.164;5.430;2024-02-26T00:21:06;11.05;;;7.15;;
51618;SDS011;38518;53.164;5.430;2024-02-26T00:23:32;11.43;;;7.45;;
51618;SDS011;38518;53.164;5.430;2024-02-26T00:25:57;11.63;;;10.05;;
51618;SDS011;38518;53.164;5.430;2024-02-26T00:28:23;11.48;;;7.82;;
51618;SDS011;38518;53.164;5.430;2024-02-26T00:30:54;10.13;;;7.80;;
51618;SDS011;38518;53.164;5.430;2024-02-26T00:33:21;10.85;;;7.90;;
51618;SDS011;38518;53.164;5.430;2024-02-26T00:35:48;10.02;;;6.70;;
51618;SDS011;38518;53.164;5.430;2024-02-26T00:38:14;9.38;;;6.53;;
51618;SDS011;38518;53.164;5.430;2024-02-26T00:40:40;8.88;;;5.90;;
51618;SDS011;38518;53.164;5.430;2024-02-26T00:43:06;10.07;;;8.65;;
51618;SDS011;38518;53.164;5.430;2024-02-26T00:45:34;7.65;;;5.82;;
51618;SDS011;38518;53.164;5.430;2024-02-26T00:48:00;7.60;;;5.72;;
51618;SDS011;38518;53.164;5.430;2024-02-26T00:50:29;9.20;;;6.53;;
51618;SDS011;38518;53.164;5.430;2024-02-26T00:52:59;8.50;;;5.80;;
51618;SDS011;38518;53.164;5.430;2024-02-26T00:55:25;8.15;;;5.90;;
51618;SDS011;38518;53.164;5.430;2024-02-26T00:57:51;8.43;;;5.90;;
51618;SDS011;38518;53.164;5.430;2024-02-26T01:00:17;7.57;;;5.30;;
51618;SDS011;38518;53.164;5.430;2024-02-26T01:02:43;7.72;;;7.03;;
51618;SDS011;38518;53.164;5.430;2024-02-26T01:05:11;6.40;;;5.57;;
51618;SDS011;38518;53.164;5.430;2024-02-26T01:07:38;7.80;;;7.00;;
51618;SDS011;38518;53.164;5.430;2024-02-26T01:10:05;6.63;;;4.90;;
51618;SDS011;38518;53.164;5.430;2024-02-26T01:12:32;7.13;;;6.43;;
51618;SDS011;38518;53.164;5.430;2024-02-26T01:14:58;7.88;;;4.93;;
51618;SDS011;38518;53.164;5.430;2024-02-26T01:17:23;8.95;;;5.38;;
51618;SDS011;38518;53.164;5.430;2024-02-26T01:19:49;7.28;;;6.57;;
51618;SDS011;38518;53.164;5.430;2024-02-26T01:22:15;5.70;;;5.15;;
51618;SDS011;38518;53.164;5.430;2024-02-26T01:24:41;6.90;;;6.30;;
51618;SDS011;38518;53.164;5.430;2024-02-26T01:27:06;7.25;;;4.78;;
51618;SDS011;38518;53.164;5.430;2024-02-26T01:29:34;6.20;;;5.10;;
51618;SDS011;38518;53.164;5.430;2024-02-26T01:31:59;9.65;;;6.80;;
51618;SDS011;38518;53.164;5.430;2024-02-26T01:34:25;7.63;;;5.57;;
51618;SDS011;38518;53.164;5.430;2024-02-26T01:36:51;7.32;;;5.07;;
51618;SDS011;38518;53.164;5.430;2024-02-26T01:39:17;7.20;;;5.53;;
51618;SDS011;38518;53.164;5.430;2024-02-26T01:41:43;8.85;;;5.70;;
51618;SDS011;38518;53.164;5.430;2024-02-26T01:44:11;9.18;;;6.55;;
51618;SDS011;38518;53.164;5.430;2024-02-26T01:46:38;6.40;;;5.13;;
51618;SDS011;38518;53.164;5.430;2024-02-26T01:49:04;7.68;;;5.20;;
51618;SDS011;38518;53.164;5.430;2024-02-26T01:51:31;8.27;;;7.22;;
51618;SDS011;38518;53.164;5.430;2024-02-26T01:53:58;7.45;;;5.18;;
51618;SDS011;38518;53.164;5.430;2024-02-26T01:56:25;7.47;;;5.57;;
51618;SDS011;38518;53.164;5.430;2024-02-26T01:58:55;8.20;;;5.82;;
51618;SDS011;38518;53.164;5.430;2024-02-26T02:01:22;6.75;;;6.07;;
51618;SDS011;38518;53.164;5.430;2024-02-26T02:03:55;10.30;;;5.43;;
51618;SDS011;38518;53.164;5.430;2024-02-26T02:06:23;7.90;;;5.72;;
51618;SDS011;38518;53.164;5.430;2024-02-26T02:08:48;7.55;;;5.20;;
51618;SDS011;38518;53.164;5.430;2024-02-26T02:11:14;10.18;;;6.20;;
51618;SDS011;38518;53.164;5.430;2024-02-26T02:13:40;6.97;;;4.97;;
51618;SDS011;38518;53.164;5.430;2024-02-26T02:16:07;8.95;;;5.28;;
51618;SDS011;38518;53.164;5.430;2024-02-26T02:18:34;6.80;;;5.50;;
51618;SDS011;38518;53.164;5.430;2024-02-26T02:21:00;8.32;;;7.00;;
51618;SDS011;38518;53.164;5.430;2024-02-26T02:23:26;7.63;;;5.57;;
51618;SDS011;38518;53.164;5.430;2024-02-26T02:25:52;7.30;;;5.15;;
51618;SDS011;38518;53.164;5.430;2024-02-26T02:28:20;10.27;;;5.70;;
51618;SDS011;38518;53.164;5.430;2024-02-26T02:30:46;6.15;;;5.38;;
51618;SDS011;38518;53.164;5.430;2024-02-26T02:33:13;7.05;;;5.10;;
51618;SDS011;38518;53.164;5.430;2024-02-26T02:35:40;6.75;;;5.50;;
51618;SDS011;38518;53.164;5.430;2024-02-26T02:38:06;8.23;;;7.05;;
51618;SDS011;38518;53.164;5.430;2024-02-26T02:40:32;8.40;;;5.70;;
51618;SDS011;38518;53.164;5.430;2024-02-26T02:42:57;5.75;;;4.80;;
51618;SDS011;38518;53.164;5.430;2024-02-26T02:45:25;7.90;;;5.20;;
51618;SDS011;38518;53.164;5.430;2024-02-26T02:47:50;8.63;;;5.47;;
51618;SDS011;38518;53.164;5.430;2024-02-26T02:50:16;8.50;;;5.20;;
51618;SDS011;38518;53.164;5.430;2024-02-26T02:52:42;6.43;;;5.05;;
51618;SDS011;38518;53.164;5.430;2024-02-26T02:55:07;6.43;;;5.10;;
51618;SDS011;38518;53.164;5.430;2024-02-26T02:57:33;8.90;;;5.35;;
51618;SDS011;38518;53.164;5.430;2024-02-26T02:59:59;7.20;;;5.25;;
51618;SDS011;38518;53.164;5.430;2024-02-26T03:02:25;5.80;;;5.20;;
51618;SDS011;38518;53.164;5.430;2024-02-26T03:04:51;8.07;;;6.70;;
51618;SDS011;38518;53.164;5.430;2024-02-26T03:07:16;10.27;;;5.63;;
51618;SDS011;38518;53.164;5.430;2024-02-26T03:09:42;7.63;;;4.80;;
51618;SDS011;38518;53.164;5.430;2024-02-26T03:12:08;5.40;;;4.65;;
51618;SDS011;38518;53.164;5.430;2024-02-26T03:14:34;7.30;;;5.50;;
51618;SDS011;38518;53.164;5.430;2024-02-26T03:16:59;7.25;;;4.97;;
51618;SDS011;38518;53.164;5.430;2024-02-26T03:19:25;8.45;;;6.20;;
51618;SDS011;38518;53.164;5.430;2024-02-26T03:21:51;6.45;;;5.13;;
51618;SDS011;38518;53.164;5.430;2024-02-26T03:24:17;6.22;;;5.63;;
51618;SDS011;38518;53.164;5.430;2024-02-26T03:26:42;7.30;;;4.70;;
51618;SDS011;38518;53.164;5.430;2024-02-26T03:29:08;7.03;;;4.93;;
51618;SDS011;38518;53.164;5.430;2024-02-26T03:31:34;7.13;;;4.45;;
51618;SDS011;38518;53.164;5.430;2024-02-26T03:34:00;8.18;;;4.68;;
51618;SDS011;38518;53.164;5.430;2024-02-26T03:36:25;6.05;;;4.63;;
51618;SDS011;38518;53.164;5.430;2024-02-26T03:38:51;7.20;;;4.53;;
51618;SDS011;38518;53.164;5.430;2024-02-26T03:41:17;6.97;;;5.20;;
51618;SDS011;38518;53.164;5.430;2024-02-26T03:43:43;6.63;;;4.53;;
51618;SDS011;38518;53.164;5.430;2024-02-26T03:46:10;6.85;;;6.13;;
51618;SDS011;38518;53.164;5.430;2024-02-26T03:48:38;7.38;;;4.80;;
51618;SDS011;38518;53.164;5.430;2024-02-26T03:51:05;6.55;;;4.78;;
51618;SDS011;38518;53.164;5.430;2024-02-26T03:53:31;6.53;;;5.22;;
51618;SDS011;38518;53.164;5.430;2024-02-26T03:55:56;5.43;;;4.75;;
51618;SDS011;38518;53.164;5.430;2024-02-26T03:58:22;7.95;;;7.13;;
51618;SDS011;38518;53.164;5.430;2024-02-26T04:00:48;6.47;;;5.25;;
51618;SDS011;38518;53.164;5.430;2024-02-26T04:03:13;5.85;;;4.97;;
51618;SDS011;38518;53.164;5.430;2024-02-26T04:05:39;6.65;;;5.32;;
51618;SDS011;38518;53.164;5.430;2024-02-26T04:08:05;7.05;;;5.50;;
51618;SDS011;38518;53.164;5.430;2024-02-26T04:10:32;7.07;;;5.50;;
51618;SDS011;38518;53.164;5.430;2024-02-26T04:13:00;7.20;;;5.00;;
51618;SDS011;38518;53.164;5.430;2024-02-26T04:15:26;6.18;;;5.13;;
51618;SDS011;38518;53.164;5.430;2024-02-26T04:17:52;7.60;;;6.60;;
51618;SDS011;38518;53.164;5.430;2024-02-26T04:20:18;5.75;;;5.15;;
51618;SDS011;38518;53.164;5.430;2024-02-26T04:22:43;6.25;;;5.05;;
51618;SDS011;38518;53.164;5.430;2024-02-26T04:25:09;6.32;;;4.85;;
51618;SDS011;38518;53.164;5.430;2024-02-26T04:27:35;9.38;;;6.68;;
51618;SDS011;38518;53.164;5.430;2024-02-26T04:30:01;6.03;;;4.72;;
51618;SDS011;38518;53.164;5.430;2024-02-26T04:32:29;6.90;;;5.15;;
51618;SDS011;38518;53.164;5.430;2024-02-26T04:34:55;5.47;;;4.50;;
51618;SDS011;38518;53.164;5.430;2024-02-26T04:37:20;5.80;;;4.80;;
51618;SDS011;38518;53.164;5.430;2024-02-26T04:39:46;6.97;;;5.03;;
51618;SDS011;38518;53.164;5.430;2024-02-26T04:42:12;9.07;;;6.10;;
51618;SDS011;38518;53.164;5.430;2024-02-26T04:44:38;9.23;;;6.78;;
51618;SDS011;38518;53.164;5.430;2024-02-26T04:47:03;6.68;;;5.53;;
51618;SDS011;38518;53.164;5.430;2024-02-26T04:49:29;8.13;;;5.88;;
51618;SDS011;38518;53.164;5.430;2024-02-26T04:51:55;9.10;;;7.88;;
51618;SDS011;38518;53.164;5.430;2024-02-26T04:54:21;8.00;;;5.80;;
51618;SDS011;38518;53.164;5.430;2024-02-26T04:56:47;8.68;;;6.55;;
51618;SDS011;38518;53.164;5.430;2024-02-26T04:59:13;8.07;;;5.72;;
51618;SDS011;38518;53.164;5.430;2024-02-26T05:01:39;8.07;;;5.65;;
51618;SDS011;38518;53.164;5.430;2024-02-26T05:04:05;7.93;;;5.97;;
51618;SDS011;38518;53.164;5.430;2024-02-26T05:06:30;7.88;;;6.05;;
51618;SDS011;38518;53.164;5.430;2024-02-26T05:08:56;8.18;;;7.40;;
51618;SDS011;38518;53.164;5.430;2024-02-26T05:11:22;8.02;;;6.00;;
51618;SDS011;38518;53.164;5.430;2024-02-26T05:13:48;9.18;;;5.72;;
51618;SDS011;38518;53.164;5.430;2024-02-26T05:16:14;6.90;;;6.20;;
51618;SDS011;38518;53.164;5.430;2024-02-26T05:18:39;8.48;;;7.20;;
51618;SDS011;38518;53.164;5.430;2024-02-26T05:21:05;6.28;;;5.55;;
51618;SDS011;38518;53.164;5.430;2024-02-26T05:23:31;8.10;;;5.57;;
51618;SDS011;38518;53.164;5.430;2024-02-26T05:25:56;7.45;;;5.50;;
51618;SDS011;38518;53.164;5.430;2024-02-26T05:28:22;8.52;;;5.57;;
51618;SDS011;38518;53.164;5.430;2024-02-26T05:30:48;6.88;;;5.30;;
51618;SDS011;38518;53.164;5.430;2024-02-26T05:33:14;7.50;;;5.30;;
51618;SDS011;38518;53.164;5.430;2024-02-26T05:35:39;7.28;;;6.57;;
51618;SDS011;38518;53.164;5.430;2024-02-26T05:38:05;7.68;;;5.57;;
51618;SDS011;38518;53.164;5.430;2024-02-26T05:40:31;6.75;;;4.40;;
51618;SDS011;38518;53.164;5.430;2024-02-26T05:42:57;5.50;;;4.85;;
51618;SDS011;38518;53.164;5.430;2024-02-26T05:45:22;6.20;;;4.30;;
51618;SDS011;38518;53.164;5.430;2024-02-26T05:47:48;5.45;;;4.38;;
51618;SDS011;38518;53.164;5.430;2024-02-26T05:50:15;6.82;;;4.43;;
51618;SDS011;38518;53.164;5.430;2024-02-26T05:52:41;4.45;;;3.70;;
51618;SDS011;38518;53.164;5.430;2024-02-26T05:55:07;4.78;;;3.40;;
51618;SDS011;38518;53.164;5.430;2024-02-26T05:57:33;6.13;;;3.38;;
51618;SDS011;38518;53.164;5.430;2024-02-26T05:59:59;4.00;;;3.35;;
51618;SDS011;38518;53.164;5.430;2024-02-26T06:02:29;5.68;;;3.22;;
51618;SDS011;38518;53.164;5.430;2024-02-26T06:04:55;6.57;;;3.05;;
51618;SDS011;38518;53.164;5.430;2024-02-26T06:07:21;5.13;;;3.28;;
51618;SDS011;38518;53.164;5.430;2024-02-26T06:09:47;5.22;;;3.00;;
51618;SDS011;38518;53.164;5.430;2024-02-26T06:12:13;2.92;;;2.65;;
51618;SDS011;38518;53.164;5.430;2024-02-26T06:14:39;2.78;;;2.58;;
51618;SDS011;38518;53.164;5.430;2024-02-26T06:17:05;3.00;;;2.58;;
51618;SDS011;38518;53.164;5.430;2024-02-26T06:19:32;4.43;;;2.80;;
51618;SDS011;38518;53.164;5.430;2024-02-26T06:21:58;5.22;;;2.78;;
51618;SDS011;38518;53.164;5.430;2024-02-26T06:24:23;4.22;;;2.63;;
51618;SDS011;38518;53.164;5.430;2024-02-26T06:26:49;3.55;;;2.65;;
51618;SDS011;38518;53.164;5.430;2024-02-26T06:29:15;2.97;;;2.67;;
51618;SDS011;38518;53.164;5.430;2024-02-26T06:31:40;6.93;;;2.88;;
51618;SDS011;38518;53.164;5.430;2024-02-26T06:34:06;5.43;;;2.83;;
51618;SDS011;38518;53.164;5.430;2024-02-26T06:36:32;3.85;;;2.58;;
51618;SDS011;38518;53.164;5.430;2024-02-26T06:38:58;3.80;;;2.35;;
51618;SDS011;38518;53.164;5.430;2024-02-26T06:41:24;4.38;;;2.45;;
51618;SDS011;38518;53.164;5.430;2024-02-26T06:43:53;3.88;;;2.38;;
51618;SDS011;38518;53.164;5.430;2024-02-26T06:46:19;4.60;;;2.08;;
51618;SDS011;38518;53.164;5.430;2024-02-26T06:48:45;7.95;;;2.97;;
51618;SDS011;38518;53.164;5.430;2024-02-26T06:51:10;3.78;;;2.58;;
51618;SDS011;38518;53.164;5.430;2024-02-26T06:53:36;4.40;;;2.22;;
51618;SDS011;38518;53.164;5.430;2024-02-26T06:56:02;4.15;;;2.58;;
51618;SDS011;38518;53.164;5.430;2024-02-26T06:58:28;3.50;;;2.28;;
51618;SDS011;38518;53.164;5.430;2024-02-26T07:00:53;3.00;;;2.25;;
51618;SDS011;38518;53.164;5.430;2024-02-26T07:03:19;5.60;;;2.10;;
51618;SDS011;38518;53.164;5.430;2024-02-26T07:05:45;2.60;;;1.90;;
51618;SDS011;38518;53.164;5.430;2024-02-26T07:08:11;5.20;;;2.25;;
51618;SDS011;38518;53.164;5.430;2024-02-26T07:10:37;2.78;;;2.13;;
51618;SDS011;38518;53.164;5.430;2024-02-26T07:13:02;2.80;;;1.92;;
51618;SDS011;38518;53.164;5.430;2024-02-26T07:15:28;3.53;;;2.35;;
51618;SDS011;38518;53.164;5.430;2024-02-26T07:17:54;4.57;;;2.53;;
51618;SDS011;38518;53.164;5.430;2024-02-26T07:20:20;2.40;;;2.20;;
51618;SDS011;38518;53.164;5.430;2024-02-26T07:22:46;3.03;;;2.35;;
51618;SDS011;38518;53.164;5.430;2024-02-26T07:25:12;3.00;;;2.00;;
51618;SDS011;38518;53.164;5.430;2024-02-26T07:27:41;2.70;;;1.98;;
51618;SDS011;38518;53.164;5.430;2024-02-26T07:30:07;2.33;;;2.13;;
51618;SDS011;38518;53.164;5.430;2024-02-26T07:32:34;2.15;;;1.95;;
51618;SDS011;38518;53.164;5.430;2024-02-26T07:35:00;3.42;;;2.50;;
51618;SDS011;38518;53.164;5.430;2024-02-26T07:37:26;4.55;;;2.53;;
51618;SDS011;38518;53.164;5.430;2024-02-26T07:39:51;4.60;;;2.55;;
51618;SDS011;38518;53.164;5.430;2024-02-26T07:42:18;3.05;;;2.42;;
51618;SDS011;38518;53.164;5.430;2024-02-26T07:44:44;4.38;;;2.53;;
51618;SDS011;38518;53.164;5.430;2024-02-26T07:47:10;3.90;;;2.47;;
51618;SDS011;38518;53.164;5.430;2024-02-26T07:49:35;3.97;;;2.60;;
51618;SDS011;38518;53.164;5.430;2024-02-26T07:52:01;6.32;;;2.95;;
51618;SDS011;38518;53.164;5.430;2024-02-26T07:54:27;4.25;;;2.75;;
51618;SDS011;38518;53.164;5.430;2024-02-26T07:56:53;5.32;;;2.97;;
51618;SDS011;38518;53.164;5.430;2024-02-26T07:59:18;3.30;;;2.90;;
51618;SDS011;38518;53.164;5.430;2024-02-26T08:01:48;7.22;;;3.22;;
51618;SDS011;38518;53.164;5.430;2024-02-26T08:04:15;6.32;;;2.95;;
51618;SDS011;38518;53.164;5.430;2024-02-26T08:06:41;6.25;;;3.83;;
51618;SDS011;38518;53.164;5.430;2024-02-26T08:09:08;4.97;;;3.55;;
51618;SDS011;38518;53.164;5.430;2024-02-26T08:11:34;4.78;;;2.70;;
51618;SDS011;38518;53.164;5.430;2024-02-26T08:14:00;3.78;;;2.90;;
51618;SDS011;38518;53.164;5.430;2024-02-26T08:16:26;5.68;;;2.97;;
51618;SDS011;38518;53.164;5.430;2024-02-26T08:18:52;6.75;;;3.25;;
51618;SDS011;38518;53.164;5.430;2024-02-26T08:21:18;4.18;;;3.15;;
51618;SDS011;38518;53.164;5.430;2024-02-26T08:23:44;5.35;;;3.35;;
51618;SDS011;38518;53.164;5.430;2024-02-26T08:26:09;6.47;;;3.75;;
51618;SDS011;38518;53.164;5.430;2024-02-26T08:28:36;6.15;;;3.33;;
51618;SDS011;38518;53.164;5.430;2024-02-26T08:31:03;5.10;;;3.40;;
51618;SDS011;38518;53.164;5.430;2024-02-26T08:33:29;7.50;;;3.60;;
51618;SDS011;38518;53.164;5.430;2024-02-26T08:35:55;5.97;;;4.10;;
51618;SDS011;38518;53.164;5.430;2024-02-26T08:38:22;7.15;;;3.50;;
51618;SDS011;38518;53.164;5.430;2024-02-26T08:40:48;5.68;;;3.47;;
51618;SDS011;38518;53.164;5.430;2024-02-26T08:43:14;6.22;;;4.53;;
51618;SDS011;38518;53.164;5.430;2024-02-26T08:45:40;5.60;;;3.53;;
51618;SDS011;38518;53.164;5.430;2024-02-26T08:48:06;8.07;;;4.30;;
51618;SDS011;38518;53.164;5.430;2024-02-26T08:50:33;5.47;;;3.40;;
51618;SDS011;38518;53.164;5.430;2024-02-26T08:52:59;8.95;;;3.92;;
51618;SDS011;38518;53.164;5.430;2024-02-26T08:55:26;5.03;;;3.35;;
51618;SDS011;38518;53.164;5.430;2024-02-26T08:57:52;6.20;;;3.28;;
51618;SDS011;38518;53.164;5.430;2024-02-26T09:00:18;7.45;;;3.42;;
51618;SDS011;38518;53.164;5.430;2024-02-26T09:02:45;5.32;;;3.17;;
51618;SDS011;38518;53.164;5.430;2024-02-26T09:05:14;7.55;;;3.05;;
51618;SDS011;38518;53.164;5.430;2024-02-26T09:07:40;6.60;;;3.05;;
51618;SDS011;38518;53.164;5.430;2024-02-26T09:10:06;6.00;;;2.80;;
51618;SDS011;38518;53.164;5.430;2024-02-26T09:12:36;8.00;;;3.83;;
51618;SDS011;38518;53.164;5.430;2024-02-26T09:15:02;5.07;;;2.58;;
51618;SDS011;38518;53.164;5.430;2024-02-26T09:17:28;6.65;;;3.63;;
51618;SDS011;38518;53.164;5.430;2024-02-26T09:19:54;5.63;;;2.78;;
51618;SDS011;38518;53.164;5.430;2024-02-26T09:22:20;6.85;;;3.22;;
51618;SDS011;38518;53.164;5.430;2024-02-26T09:24:49;6.40;;;3.05;;
51618;SDS011;38518;53.164;5.430;2024-02-26T09:27:16;6.25;;;3.05;;
51618;SDS011;38518;53.164;5.430;2024-02-26T09:29:42;7.15;;;2.55;;
51618;SDS011;38518;53.164;5.430;2024-02-26T09:32:08;3.78;;;2.70;;
51618;SDS011;38518;53.164;5.430;2024-02-26T09:34:34;4.10;;;2.60;;
51618;SDS011;38518;53.164;5.430;2024-02-26T09:36:59;7.03;;;2.88;;
51618;SDS011;38518;53.164;5.430;2024-02-26T09:39:26;9.18;;;2.60;;
51618;SDS011;38518;53.164;5.430;2024-02-26T09:41:53;4.20;;;2.22;;
51618;SDS011;38518;53.164;5.430;2024-02-26T09:44:19;5.68;;;2.80;;
51618;SDS011;38518;53.164;5.430;2024-02-26T09:46:48;4.72;;;3.00;;
51618;SDS011;38518;53.164;5.430;2024-02-26T09:49:16;6.18;;;2.72;;
51618;SDS011;38518;53.164;5.430;2024-02-26T09:51:44;4.70;;;2.45;;
51618;SDS011;38518;53.164;5.430;2024-02-26T09:54:12;4.85;;;2.78;;
51618;SDS011;38518;53.164;5.430;2024-02-26T09:56:40;3.72;;;2.50;;
51618;SDS011;38518;53.164;5.430;2024-02-26T09:59:12;5.68;;;3.05;;
51618;SDS011;38518;53.164;5.430;2024-02-26T10:01:42;7.50;;;3.40;;
51618;SDS011;38518;53.164;5.430;2024-02-26T10:04:09;7.53;;;3.00;;
51618;SDS011;38518;53.164;5.430;2024-02-26T10:06:36;6.60;;;2.55;;
51618;SDS011;38518;53.164;5.430;2024-02-26T10:09:03;6.22;;;2.60;;
51618;SDS011;38518;53.164;5.430;2024-02-26T10:11:35;5.82;;;2.60;;
51618;SDS011;38518;53.164;5.430;2024-02-26T10:14:03;4.10;;;2.70;;
51618;SDS011;38518;53.164;5.430;2024-02-26T10:16:28;4.57;;;2.95;;
51618;SDS011;38518;53.164;5.430;2024-02-26T10:18:55;8.93;;;2.60;;
51618;SDS011;38518;53.164;5.430;2024-02-26T10:21:20;3.22;;;2.22;;
51618;SDS011;38518;53.164;5.430;2024-02-26T10:23:47;4.15;;;2.70;;
51618;SDS011;38518;53.164;5.430;2024-02-26T10:26:14;4.07;;;2.60;;
51618;SDS011;38518;53.164;5.430;2024-02-26T10:28:43;5.38;;;2.60;;
51618;SDS011;38518;53.164;5.430;2024-02-26T10:31:10;7.15;;;2.40;;
51618;SDS011;38518;53.164;5.430;2024-02-26T10:33:37;5.07;;;2.83;;
51618;SDS011;38518;53.164;5.430;2024-02-26T10:36:06;7.88;;;2.65;;
51618;SDS011;38518;53.164;5.430;2024-02-26T10:38:33;6.60;;;2.60;;
51618;SDS011;38518;53.164;5.430;2024-02-26T10:41:03;5.32;;;3.00;;
51618;SDS011;38518;53.164;5.430;2024-02-26T10:43:31;5.55;;;3.08;;
51618;SDS011;38518;53.164;5.430;2024-02-26T10:45:57;5.88;;;2.90;;
51618;SDS011;38518;53.164;5.430;2024-02-26T10:48:23;6.05;;;2.67;;
51618;SDS011;38518;53.164;5.430;2024-02-26T10:50:49;6.30;;;3.50;;
51618;SDS011;38518;53.164;5.430;2024-02-26T10:53:22;3.70;;;2.72;;
51618;SDS011;38518;53.164;5.430;2024-02-26T10:55:54;6.05;;;3.42;;
51618;SDS011;38518;53.164;5.430;2024-02-26T10:58:22;4.07;;;2.60;;
51618;SDS011;38518;53.164;5.430;2024-02-26T11:00:50;5.65;;;3.10;;
51618;SDS011;38518;53.164;5.430;2024-02-26T11:03:17;5.85;;;3.17;;
51618;SDS011;38518;53.164;5.430;2024-02-26T11:05:46;7.32;;;3.20;;
51618;SDS011;38518;53.164;5.430;2024-02-26T11:08:13;4.78;;;3.08;;
51618;SDS011;38518;53.164;5.430;2024-02-26T11:10:40;4.75;;;2.60;;
51618;SDS011;38518;53.164;5.430;2024-02-26T11:13:07;6.05;;;3.25;;
51618;SDS011;38518;53.164;5.430;2024-02-26T11:15:37;5.90;;;2.80;;
51618;SDS011;38518;53.164;5.430;2024-02-26T11:18:04;6.63;;;2.88;;
51618;SDS011;38518;53.164;5.430;2024-02-26T11:20:31;5.45;;;3.30;;
51618;SDS011;38518;53.164;5.430;2024-02-26T11:22:58;8.88;;;3.10;;
51618;SDS011;38518;53.164;5.430;2024-02-26T11:25:24;4.80;;;2.75;;
51618;SDS011;38518;53.164;5.430;2024-02-26T11:27:51;5.75;;;3.75;;
51618;SDS011;38518;53.164;5.430;2024-02-26T11:30:24;10.25;;;3.03;;
51618;SDS011;38518;53.164;5.430;2024-02-26T11:32:51;7.47;;;3.47;;
51618;SDS011;38518;53.164;5.430;2024-02-26T11:35:18;4.82;;;3.45;;
51618;SDS011;38518;53.164;5.430;2024-02-26T11:37:54;8.18;;;3.30;;
51618;SDS011;38518;53.164;5.430;2024-02-26T11:40:22;6.38;;;3.72;;
51618;SDS011;38518;53.164;5.430;2024-02-26T11:42:49;7.38;;;3.20;;
51618;SDS011;38518;53.164;5.430;2024-02-26T11:50:54;5.30;;;2.90;;
51618;SDS011;38518;53.164;5.430;2024-02-26T11:53:26;5.85;;;3.28;;
51618;SDS011;38518;53.164;5.430;2024-02-26T11:58:48;7.85;;;4.40;;
51618;SDS011;38518;53.164;5.430;2024-02-26T12:04:13;6.57;;;3.15;;
51618;SDS011;38518;53.164;5.430;2024-02-26T12:09:32;6.73;;;3.90;;
51618;SDS011;38518;53.164;5.430;2024-02-26T12:11:59;10.20;;;3.72;;
51618;SDS011;38518;53.164;5.430;2024-02-26T12:14:26;10.52;;;4.22;;
51618;SDS011;38518;53.164;5.430;2024-02-26T12:16:53;7.47;;;4.20;;
51618;SDS011;38518;53.164;5.430;2024-02-26T12:19:23;7.15;;;3.58;;
51618;SDS011;38518;53.164;5.430;2024-02-26T12:21:52;10.52;;;3.72;;
51618;SDS011;38518;53.164;5.430;2024-02-26T12:24:21;8.00;;;4.70;;
51618;SDS011;38518;53.164;5.430;2024-02-26T12:26:47;6.38;;;3.55;;
51618;SDS011;38518;53.164;5.430;2024-02-26T12:29:13;6.95;;;3.28;;
51618;SDS011;38518;53.164;5.430;2024-02-26T12:31:39;6.38;;;3.50;;
51618;SDS011;38518;53.164;5.430;2024-02-26T12:34:06;7.35;;;3.10;;
51618;SDS011;38518;53.164;5.430;2024-02-26T12:36:35;4.57;;;2.38;;
51618;SDS011;38518;53.164;5.430;2024-02-26T12:39:02;9.82;;;3.50;;
51618;SDS011;38518;53.164;5.430;2024-02-26T12:41:30;9.30;;;3.72;;
51618;SDS011;38518;53.164;5.430;2024-02-26T12:43:57;8.10;;;3.33;;
51618;SDS011;38518;53.164;5.430;2024-02-26T12:46:23;7.18;;;2.65;;
51618;SDS011;38518;53.164;5.430;2024-02-26T12:48:49;7.72;;;3.42;;
51618;SDS011;38518;53.164;5.430;2024-02-26T12:51:15;8.95;;;3.53;;
51618;SDS011;38518;53.164;5.430;2024-02-26T12:53:43;9.45;;;3.15;;
51618;SDS011;38518;53.164;5.430;2024-02-26T12:56:10;6.38;;;2.70;;
51618;SDS011;38518;53.164;5.430;2024-02-26T12:58:38;10.95;;;2.88;;
51618;SDS011;38518;53.164;5.430;2024-02-26T13:01:05;8.80;;;2.55;;
51618;SDS011;38518;53.164;5.430;2024-02-26T13:03:34;5.45;;;2.35;;
51618;SDS011;38518;53.164;5.430;2024-02-26T13:06:02;9.65;;;3.35;;
51618;SDS011;38518;53.164;5.430;2024-02-26T13:08:29;6.20;;;2.63;;
51618;SDS011;38518;53.164;5.430;2024-02-26T13:10:55;7.25;;;2.40;;
51618;SDS011;38518;53.164;5.430;2024-02-26T13:13:20;5.95;;;2.75;;
51618;SDS011;38518;53.164;5.430;2024-02-26T13:15:47;8.32;;;2.20;;
51618;SDS011;38518;53.164;5.430;2024-02-26T13:18:13;9.10;;;2.80;;
51618;SDS011;38518;53.164;5.430;2024-02-26T13:20:40;7.93;;;2.90;;
51618;SDS011;38518;53.164;5.430;2024-02-26T13:23:07;5.32;;;2.00;;
51618;SDS011;38518;53.164;5.430;2024-02-26T13:25:37;6.30;;;2.88;;
51618;SDS011;38518;53.164;5.430;2024-02-26T13:28:06;8.27;;;2.30;;
51618;SDS011;38518;53.164;5.430;2024-02-26T13:30:34;8.27;;;3.15;;
51618;SDS011;38518;53.164;5.430;2024-02-26T13:33:10;9.15;;;2.80;;
51618;SDS011;38518;53.164;5.430;2024-02-26T13:35:37;8.10;;;2.58;;
51618;SDS011;38518;53.164;5.430;2024-02-26T13:38:04;7.90;;;2.42;;
51618;SDS011;38518;53.164;5.430;2024-02-26T13:40:31;5.15;;;2.00;;
51618;SDS011;38518;53.164;5.430;2024-02-26T13:42:57;4.53;;;2.20;;
51618;SDS011;38518;53.164;5.430;2024-02-26T13:45:23;8.23;;;2.70;;
51618;SDS011;38518;53.164;5.430;2024-02-26T13:47:49;5.60;;;2.30;;
51618;SDS011;38518;53.164;5.430;2024-02-26T13:50:15;5.72;;;2.45;;
51618;SDS011;38518;53.164;5.430;2024-02-26T13:52:41;5.85;;;2.75;;
51618;SDS011;38518;53.164;5.430;2024-02-26T13:55:07;4.05;;;2.00;;
51618;SDS011;38518;53.164;5.430;2024-02-26T13:57:32;4.57;;;2.10;;
51618;SDS011;38518;53.164;5.430;2024-02-26T13:59:58;5.75;;;2.58;;
51618;SDS011;38518;53.164;5.430;2024-02-26T14:02:24;4.15;;;2.03;;
51618;SDS011;38518;53.164;5.430;2024-02-26T14:04:51;7.35;;;2.65;;
51618;SDS011;38518;53.164;5.430;2024-02-26T14:07:16;6.35;;;2.30;;
51618;SDS011;38518;53.164;5.430;2024-02-26T14:09:42;6.40;;;2.75;;
51618;SDS011;38518;53.164;5.430;2024-02-26T14:12:09;4.93;;;2.42;;
51618;SDS011;38518;53.164;5.430;2024-02-26T14:14:35;5.85;;;2.25;;
51618;SDS011;38518;53.164;5.430;2024-02-26T14:17:03;5.28;;;2.17;;
51618;SDS011;38518;53.164;5.430;2024-02-26T14:19:29;4.65;;;2.45;;
51618;SDS011;38518;53.164;5.430;2024-02-26T14:21:55;6.07;;;2.15;;
51618;SDS011;38518;53.164;5.430;2024-02-26T14:24:21;4.35;;;1.90;;
51618;SDS011;38518;53.164;5.430;2024-02-26T14:26:46;4.00;;;1.83;;
51618;SDS011;38518;53.164;5.430;2024-02-26T14:29:12;5.75;;;2.05;;
51618;SDS011;38518;53.164;5.430;2024-02-26T14:31:39;4.05;;;1.88;;
51618;SDS011;38518;53.164;5.430;2024-02-26T14:34:05;4.43;;;1.90;;
51618;SDS011;38518;53.164;5.430;2024-02-26T14:36:30;4.32;;;1.70;;
51618;SDS011;38518;53.164;5.430;2024-02-26T14:38:56;6.72;;;1.90;;
51618;SDS011;38518;53.164;5.430;2024-02-26T14:41:22;5.43;;;2.33;;
51618;SDS011;38518;53.164;5.430;2024-02-26T14:43:48;4.85;;;1.90;;
51618;SDS011;38518;53.164;5.430;2024-02-26T14:46:14;4.97;;;2.17;;
51618;SDS011;38518;53.164;5.430;2024-02-26T14:48:39;4.85;;;1.90;;
51618;SDS011;38518;53.164;5.430;2024-02-26T14:51:05;7.03;;;1.75;;
51618;SDS011;38518;53.164;5.430;2024-02-26T14:53:31;4.65;;;1.58;;
51618;SDS011;38518;53.164;5.430;2024-02-26T14:55:57;6.20;;;1.55;;